Time;durP1;ratioP1;P1;durP2;ratioP2;P2;SDS_P1;SDS_P2;PMS_P1;PMS_P2;Temp;Humidity;BMP_temperature;BMP_pressure;BME280_temperature;BME280_humidity;BME280_pressure;Samples;Min_cycle;Max_cycle;Signal;HPM_P1;HPM_P2
2023/12/13 00:01:37;;;;;;;80.70;32.40;;;7.50;99.90;;;;;;5106268;28;20412;-71
2023/12/13 00:04:03;;;;;;;77.05;32.63;;;7.40;99.90;;;;;;5097222;28;20451;-71
2023/12/13 00:06:28;;;;;;;86.15;33.60;;;7.40;99.90;;;;;;5098192;28;20440;-71
2023/12/13 00:08:55;;;;;;;78.50;31.90;;;7.50;99.90;;;;;;5096801;28;20401;-71
2023/12/13 00:11:20;;;;;;;80.05;32.33;;;7.40;99.90;;;;;;5089975;28;20424;-71
2023/12/13 00:13:46;;;;;;;87.20;33.40;;;7.50;99.90;;;;;;5098105;28;20406;-71
2023/12/13 00:16:12;;;;;;;83.50;31.95;;;7.40;99.90;;;;;;5103944;28;20396;-71
2023/12/13 00:18:37;;;;;;;94.00;33.42;;;7.40;99.90;;;;;;5092700;28;20608;-71
2023/12/13 00:21:03;;;;;;;90.67;32.73;;;7.40;99.90;;;;;;5103470;28;20437;-71
2023/12/13 00:23:29;;;;;;;90.93;33.40;;;7.40;99.90;;;;;;5101564;28;20814;-71
2023/12/13 00:25:54;;;;;;;97.20;32.88;;;7.40;99.90;;;;;;5103308;28;20409;-71
2023/12/13 00:28:20;;;;;;;86.93;32.70;;;7.40;99.90;;;;;;5092403;28;21632;-71
2023/12/13 00:30:46;;;;;;;91.32;32.40;;;7.40;99.90;;;;;;5103086;28;20453;-71
2023/12/13 00:33:14;;;;;;;73.87;29.97;;;7.40;99.90;;;;;;5101359;28;20400;-71
2023/12/13 00:35:39;;;;;;;81.20;30.67;;;7.40;99.90;;;;;;5095833;28;20408;-71
2023/12/13 00:38:05;;;;;;;85.13;31.10;;;7.40;99.90;;;;;;5101545;28;20418;-71
2023/12/13 00:40:31;;;;;;;84.97;30.85;;;7.40;99.90;;;;;;5098106;28;20489;-71
2023/12/13 00:42:56;;;;;;;71.17;29.27;;;7.40;99.90;;;;;;5098360;28;20776;-71
2023/12/13 00:45:22;;;;;;;76.32;29.40;;;7.40;99.90;;;;;;5101797;28;20904;-71
2023/12/13 00:47:49;;;;;;;96.93;30.75;;;7.40;99.90;;;;;;5092202;27;20501;-71
2023/12/13 00:50:14;;;;;;;89.72;30.35;;;7.40;99.90;;;;;;5101722;28;20870;-71
2023/12/13 00:52:41;;;;;;;68.60;27.52;;;7.40;99.90;;;;;;5100488;28;20433;-71
2023/12/13 00:55:07;;;;;;;63.00;25.42;;;7.40;99.90;;;;;;5098523;28;20767;-71
2023/12/13 00:57:34;;;;;;;69.38;27.33;;;7.40;99.90;;;;;;5090559;28;20915;-71
2023/12/13 01:00:00;;;;;;;82.85;27.88;;;7.40;99.90;;;;;;5101042;28;20404;-71
2023/12/13 01:02:27;;;;;;;53.72;24.10;;;7.50;99.90;;;;;;5101323;28;20409;-71
2023/12/13 01:04:52;;;;;;;57.40;25.08;;;7.40;99.90;;;;;;5101047;28;20412;-71
2023/12/13 01:07:18;;;;;;;58.63;24.15;;;7.40;99.90;;;;;;5099911;28;20491;-71
2023/12/13 01:09:44;;;;;;;57.37;23.80;;;7.40;99.90;;;;;;5101568;28;20409;-71
2023/12/13 01:12:10;;;;;;;63.90;23.85;;;7.50;99.90;;;;;;5091762;28;20432;-71
2023/12/13 01:14:35;;;;;;;48.72;21.25;;;7.40;99.90;;;;;;5104759;28;20431;-71
2023/12/13 01:17:01;;;;;;;55.63;23.60;;;7.40;99.90;;;;;;5101867;28;20501;-71
2023/12/13 01:19:27;;;;;;;67.68;25.00;;;7.50;99.90;;;;;;5102307;28;20506;-72
2023/12/13 01:21:52;;;;;;;71.35;25.33;;;7.50;99.90;;;;;;5101094;28;20455;-71
2023/12/13 01:24:18;;;;;;;77.17;25.93;;;7.40;99.90;;;;;;5101815;28;21582;-71
2023/12/13 01:26:44;;;;;;;79.35;26.40;;;7.50;99.90;;;;;;5092369;28;20845;-72
2023/12/13 01:29:09;;;;;;;84.57;25.20;;;7.50;99.90;;;;;;5103649;28;20408;-71
2023/12/13 01:31:35;;;;;;;69.67;25.53;;;7.40;99.90;;;;;;5089985;28;20527;-71
2023/12/13 01:34:02;;;;;;;83.05;26.58;;;7.40;99.90;;;;;;5086698;28;20521;-71
2023/12/13 01:36:28;;;;;;;69.50;25.38;;;7.50;99.90;;;;;;5089701;28;20433;-71
2023/12/13 01:38:54;;;;;;;63.72;24.70;;;7.50;99.90;;;;;;5094349;28;20558;-71
2023/12/13 01:41:20;;;;;;;73.85;25.85;;;7.40;99.90;;;;;;5095222;28;20550;-71
2023/12/13 01:43:45;;;;;;;61.45;23.90;;;7.50;99.90;;;;;;5104672;28;20497;-71
2023/12/13 01:46:16;;;;;;;62.20;24.13;;;7.50;99.90;;;;;;5104450;28;20890;-71
2023/12/13 01:48:43;;;;;;;57.78;22.40;;;7.50;99.90;;;;;;5095298;28;20402;-71
2023/12/13 01:51:09;;;;;;;53.40;21.52;;;7.40;99.90;;;;;;5102083;28;20412;-71
2023/12/13 01:53:37;;;;;;;61.40;23.63;;;7.50;99.90;;;;;;5105984;28;20408;-71
2023/12/13 01:56:04;;;;;;;54.90;22.40;;;7.50;99.90;;;;;;5102740;28;20524;-71
2023/12/13 01:58:31;;;;;;;60.30;23.17;;;7.50;99.90;;;;;;5106683;28;20409;-71
2023/12/13 02:00:57;;;;;;;57.85;22.77;;;7.40;99.90;;;;;;5102553;28;20925;-71
2023/12/13 02:03:24;;;;;;;54.13;22.65;;;7.40;99.90;;;;;;5106579;28;20457;-71
2023/12/13 02:05:51;;;;;;;59.25;23.75;;;7.40;99.90;;;;;;5090923;28;20409;-71
2023/12/13 02:08:17;;;;;;;67.07;24.58;;;7.40;99.90;;;;;;5073150;28;20984;-71
2023/12/13 02:10:43;;;;;;;64.88;24.45;;;7.40;99.90;;;;;;5106010;28;20405;-71
2023/12/13 02:13:09;;;;;;;80.77;26.13;;;7.40;99.90;;;;;;5104241;28;20423;-71
2023/12/13 02:15:35;;;;;;;71.03;27.03;;;7.40;99.90;;;;;;5105752;28;20408;-71
2023/12/13 02:18:02;;;;;;;73.03;26.15;;;7.40;99.90;;;;;;5085904;28;20411;-71
2023/12/13 02:20:28;;;;;;;84.55;28.05;;;7.40;99.90;;;;;;5106152;28;20412;-71
2023/12/13 02:22:53;;;;;;;73.03;27.80;;;7.40;99.90;;;;;;5099204;28;20411;-71
2023/12/13 02:25:40;;;;;;;79.73;28.93;;;7.40;99.90;;;;;;5096656;28;20434;-71
2023/12/13 02:28:06;;;;;;;90.97;30.30;;;7.50;99.90;;;;;;5101812;28;20489;-71
2023/12/13 02:30:32;;;;;;;90.28;29.10;;;7.50;99.90;;;;;;5102150;28;20408;-71
2023/12/13 02:32:58;;;;;;;101.32;30.05;;;7.50;99.90;;;;;;5102381;28;20423;-71
2023/12/13 02:35:23;;;;;;;70.20;29.60;;;7.50;99.90;;;;;;5074407;28;20445;-71
2023/12/13 02:37:49;;;;;;;85.47;30.63;;;7.50;99.90;;;;;;5101405;28;20402;-71
2023/12/13 02:40:22;;;;;;;90.72;30.70;;;7.50;99.90;;;;;;5098842;28;20407;-71
2023/12/13 02:42:48;;;;;;;113.65;31.92;;;7.50;99.90;;;;;;5103302;28;20412;-71
2023/12/13 02:45:14;;;;;;;89.30;31.88;;;7.50;99.90;;;;;;5103398;28;20894;-71
2023/12/13 02:47:43;;;;;;;110.88;34.40;;;7.50;99.90;;;;;;5104612;28;20515;-71
2023/12/13 02:50:13;;;;;;;120.32;33.58;;;7.50;99.90;;;;;;5100993;28;20402;-71
2023/12/13 02:52:40;;;;;;;153.60;37.17;;;7.50;99.90;;;;;;5094425;28;20732;-71
2023/12/13 02:55:07;;;;;;;105.57;33.28;;;7.50;99.90;;;;;;5100325;28;20497;-71
2023/12/13 02:57:32;;;;;;;111.70;33.85;;;7.50;99.90;;;;;;5094316;28;20443;-71
2023/12/13 02:59:58;;;;;;;102.03;35.27;;;7.50;99.90;;;;;;5100810;28;20442;-71
2023/12/13 03:02:25;;;;;;;114.28;35.90;;;7.50;99.90;;;;;;5104353;28;20961;-71
2023/12/13 03:04:51;;;;;;;136.55;37.78;;;7.60;99.90;;;;;;5100290;28;20402;-71
2023/12/13 03:07:16;;;;;;;123.25;36.45;;;7.60;99.90;;;;;;5087738;28;21061;-71
2023/12/13 03:09:42;;;;;;;127.13;37.77;;;7.60;99.90;;;;;;5089700;28;20398;-71
2023/12/13 03:12:08;;;;;;;137.43;38.25;;;7.50;99.90;;;;;;5088913;28;20410;-71
2023/12/13 03:14:33;;;;;;;123.73;38.20;;;7.60;99.90;;;;;;5088507;28;20410;-71
2023/12/13 03:16:59;;;;;;;141.02;39.15;;;7.60;99.90;;;;;;5071096;28;20402;-71
2023/12/13 03:19:24;;;;;;;126.13;39.30;;;7.60;99.90;;;;;;5088593;28;20430;-71
2023/12/13 03:21:50;;;;;;;117.90;37.57;;;7.60;99.90;;;;;;5088695;28;20406;-71
2023/12/13 03:24:16;;;;;;;162.18;41.20;;;7.60;99.90;;;;;;5086696;28;20534;-71
2023/12/13 03:26:41;;;;;;;157.80;41.33;;;7.60;99.90;;;;;;5087791;28;20429;-71
2023/12/13 03:29:07;;;;;;;180.75;41.85;;;7.60;99.90;;;;;;5101773;28;20946;-71
2023/12/13 03:31:33;;;;;;;149.70;40.87;;;7.60;99.90;;;;;;5087146;28;20761;-71
2023/12/13 03:34:00;;;;;;;188.60;44.60;;;7.60;99.90;;;;;;5088386;28;20432;-71
2023/12/13 03:36:26;;;;;;;178.32;43.10;;;7.60;99.90;;;;;;5088004;28;20398;-71
2023/12/13 03:38:52;;;;;;;164.07;42.92;;;7.60;99.90;;;;;;5088113;28;20764;-71
2023/12/13 03:41:18;;;;;;;144.40;41.40;;;7.60;99.90;;;;;;5087922;28;20729;-71
2023/12/13 03:43:43;;;;;;;175.68;43.65;;;7.60;99.90;;;;;;5087777;28;20748;-71
2023/12/13 03:46:09;;;;;;;154.33;41.90;;;7.70;99.90;;;;;;5087351;28;20937;-71
2023/12/13 03:48:34;;;;;;;137.23;41.25;;;7.60;99.90;;;;;;5088457;28;21042;-71
2023/12/13 03:51:01;;;;;;;149.37;42.47;;;7.60;99.90;;;;;;5069687;28;20405;-71
2023/12/13 03:53:27;;;;;;;141.95;41.55;;;7.60;99.90;;;;;;5087333;28;20419;-71
2023/12/13 03:55:53;;;;;;;139.98;41.10;;;7.60;99.90;;;;;;5087083;28;20497;-71
2023/12/13 03:58:18;;;;;;;154.00;42.10;;;7.70;99.90;;;;;;5087297;28;20505;-71
2023/12/13 04:00:44;;;;;;;116.80;38.83;;;7.60;99.90;;;;;;5086563;28;21115;-71
2023/12/13 04:03:09;;;;;;;194.25;43.50;;;7.60;99.90;;;;;;5086688;28;20475;-71
2023/12/13 04:05:35;;;;;;;145.03;40.57;;;7.70;99.90;;;;;;5088229;28;20430;-71
2023/12/13 04:08:01;;;;;;;126.38;38.33;;;7.70;99.90;;;;;;5087330;28;20441;-71
2023/12/13 04:10:26;;;;;;;167.40;41.72;;;7.60;99.90;;;;;;5090642;28;21090;-71
2023/12/13 04:12:52;;;;;;;146.17;39.57;;;7.70;99.90;;;;;;5093679;28;20911;-71
2023/12/13 04:15:18;;;;;;;191.38;43.28;;;7.70;99.90;;;;;;5091286;28;20413;-71
2023/12/13 04:17:44;;;;;;;131.98;39.88;;;7.70;99.90;;;;;;5095079;28;20406;-71
2023/12/13 04:20:10;;;;;;;162.73;42.00;;;7.70;99.90;;;;;;5090643;28;20776;-71
2023/12/13 04:22:36;;;;;;;175.23;41.03;;;7.60;99.90;;;;;;5088455;28;20410;-71
2023/12/13 04:25:02;;;;;;;200.00;43.33;;;7.70;99.90;;;;;;5094148;28;20925;-71
2023/12/13 04:27:27;;;;;;;172.63;41.13;;;7.70;99.90;;;;;;5098374;28;20436;-71
2023/12/13 04:29:53;;;;;;;189.35;43.28;;;7.70;99.90;;;;;;5076274;28;20410;-71
2023/12/13 04:32:19;;;;;;;159.45;41.10;;;7.70;99.90;;;;;;5094995;28;20421;-71
2023/12/13 04:34:44;;;;;;;157.13;41.13;;;7.60;99.90;;;;;;5089218;28;20409;-71
2023/12/13 04:37:10;;;;;;;152.18;40.10;;;7.70;99.90;;;;;;5098605;28;20409;-71
2023/12/13 04:39:36;;;;;;;140.43;37.40;;;7.60;99.90;;;;;;5093299;28;20437;-71
2023/12/13 04:42:03;;;;;;;169.83;39.57;;;7.60;99.90;;;;;;5101989;28;20396;-71
2023/12/13 04:44:30;;;;;;;168.35;40.42;;;7.70;99.90;;;;;;5107846;28;20469;-71
2023/12/13 04:46:56;;;;;;;150.65;38.95;;;7.60;99.90;;;;;;5105721;28;20511;-71
2023/12/13 04:49:22;;;;;;;163.85;38.15;;;7.70;99.90;;;;;;5108896;28;20901;-71
2023/12/13 04:51:48;;;;;;;151.35;39.10;;;7.60;99.90;;;;;;5106576;28;20436;-71
2023/12/13 04:54:14;;;;;;;154.82;38.33;;;7.60;99.90;;;;;;5090590;28;20412;-71
2023/12/13 04:56:40;;;;;;;207.43;41.47;;;7.60;99.90;;;;;;5104705;28;20418;-71
2023/12/13 04:59:05;;;;;;;161.00;38.67;;;7.60;99.90;;;;;;5106574;28;20925;-71
2023/12/13 05:01:31;;;;;;;133.02;36.80;;;7.70;99.90;;;;;;5105085;28;20425;-71
2023/12/13 05:03:57;;;;;;;165.37;38.97;;;7.60;99.90;;;;;;5106669;28;20416;-71
2023/12/13 05:06:22;;;;;;;130.73;35.95;;;7.70;99.90;;;;;;5105415;28;20454;-71
2023/12/13 05:08:48;;;;;;;187.15;40.60;;;7.70;99.90;;;;;;5106928;28;20774;-71
2023/12/13 05:11:14;;;;;;;149.43;38.83;;;7.70;99.90;;;;;;5105414;28;20404;-71
2023/12/13 05:13:39;;;;;;;137.57;37.28;;;7.70;99.90;;;;;;5106917;28;20557;-71
2023/12/13 05:16:07;;;;;;;136.53;37.27;;;7.60;99.90;;;;;;5104162;28;20393;-71
2023/12/13 05:18:32;;;;;;;181.13;41.42;;;7.60;99.90;;;;;;5088255;28;20408;-71
2023/12/13 05:20:58;;;;;;;142.27;37.55;;;7.70;99.90;;;;;;5092980;28;20939;-71
2023/12/13 05:23:26;;;;;;;138.43;37.30;;;7.60;99.90;;;;;;5106303;28;20409;-71
2023/12/13 05:25:52;;;;;;;136.23;36.95;;;7.70;99.90;;;;;;5102042;28;20414;-71
2023/12/13 05:28:17;;;;;;;179.27;40.47;;;7.70;99.90;;;;;;5095789;28;21007;-71
2023/12/13 05:30:43;;;;;;;117.77;36.07;;;7.70;99.90;;;;;;5100927;28;20463;-71
2023/12/13 05:33:09;;;;;;;129.70;36.80;;;7.70;99.90;;;;;;5102178;28;20397;-71
2023/12/13 05:35:35;;;;;;;128.43;37.15;;;7.60;99.90;;;;;;5101647;28;20401;-71
2023/12/13 05:38:01;;;;;;;128.38;36.58;;;7.70;99.90;;;;;;5104888;28;20755;-71
2023/12/13 05:40:26;;;;;;;163.45;39.92;;;7.60;99.90;;;;;;5089769;28;20405;-71
2023/12/13 05:42:53;;;;;;;170.53;38.80;;;7.60;99.90;;;;;;5089509;28;20400;-71
2023/12/13 05:45:19;;;;;;;128.15;37.03;;;7.60;99.90;;;;;;5103522;28;20446;-71
2023/12/13 05:47:44;;;;;;;133.97;36.80;;;7.70;99.90;;;;;;5106849;28;20455;-71
2023/12/13 05:50:10;;;;;;;149.57;38.30;;;7.60;99.90;;;;;;5104531;28;20402;-71
2023/12/13 05:52:39;;;;;;;154.02;38.70;;;7.60;99.90;;;;;;5106275;28;20762;-71
2023/12/13 05:55:06;;;;;;;174.65;39.25;;;7.60;99.90;;;;;;5101735;28;20485;-71
2023/12/13 05:57:31;;;;;;;163.27;37.58;;;7.60;99.90;;;;;;5104344;28;20428;-71
2023/12/13 05:59:57;;;;;;;146.82;37.20;;;7.60;99.90;;;;;;5100479;28;20898;-71
2023/12/13 06:02:24;;;;;;;134.07;35.88;;;7.60;99.90;;;;;;5087828;28;20409;-71
2023/12/13 06:04:51;;;;;;;151.50;36.53;;;7.60;99.90;;;;;;5097987;28;20402;-71
2023/12/13 06:07:17;;;;;;;133.13;36.97;;;7.60;99.90;;;;;;5106024;28;20523;-71
2023/12/13 06:09:43;;;;;;;152.47;38.10;;;7.60;99.90;;;;;;5100422;28;20831;-71
2023/12/13 06:12:08;;;;;;;139.52;36.75;;;7.60;99.90;;;;;;5102647;28;20989;-71
2023/12/13 06:14:34;;;;;;;143.80;38.53;;;7.60;99.90;;;;;;5099463;28;20404;-71
2023/12/13 06:17:00;;;;;;;140.87;37.30;;;7.60;99.90;;;;;;5103943;28;20913;-71
2023/12/13 06:19:29;;;;;;;123.83;35.80;;;7.60;99.90;;;;;;5098996;28;20438;-71
2023/12/13 06:21:57;;;;;;;132.77;37.22;;;7.60;99.90;;;;;;5102484;28;20509;-71
2023/12/13 06:24:23;;;;;;;153.27;38.00;;;7.60;99.90;;;;;;5099230;28;20760;-71
2023/12/13 06:26:49;;;;;;;147.50;38.07;;;7.60;99.90;;;;;;5093873;28;20440;-71
2023/12/13 06:29:15;;;;;;;178.17;40.17;;;7.60;99.90;;;;;;5081337;28;20457;-71
2023/12/13 06:31:41;;;;;;;191.05;41.63;;;7.60;99.90;;;;;;5103797;28;20483;-71
2023/12/13 06:34:07;;;;;;;136.95;36.35;;;7.70;99.90;;;;;;5098364;28;20486;-69
2023/12/13 06:36:32;;;;;;;135.18;37.53;;;7.60;99.90;;;;;;5103094;28;21199;-68
2023/12/13 06:38:58;;;;;;;165.80;39.63;;;7.70;99.90;;;;;;5098005;28;20501;-70
2023/12/13 06:41:23;;;;;;;178.43;40.90;;;7.60;99.90;;;;;;5097009;28;20781;-70
2023/12/13 06:43:49;;;;;;;192.93;42.00;;;7.70;99.90;;;;;;5099630;28;20418;-71
2023/12/13 06:46:15;;;;;;;125.17;36.73;;;7.70;99.90;;;;;;5105691;28;21016;-71
2023/12/13 06:48:40;;;;;;;183.05;42.58;;;7.70;99.90;;;;;;5102980;28;20402;-71
2023/12/13 06:51:07;;;;;;;197.63;42.90;;;7.60;99.90;;;;;;5107075;28;20404;-71
2023/12/13 06:53:37;;;;;;;199.60;42.85;;;7.70;99.90;;;;;;5103330;28;20442;-71
2023/12/13 06:56:03;;;;;;;215.10;44.33;;;7.70;99.90;;;;;;5105074;28;21001;-72
2023/12/13 06:58:28;;;;;;;223.05;45.75;;;7.70;99.90;;;;;;5102049;28;20418;-71
2023/12/13 07:00:54;;;;;;;201.83;44.00;;;7.70;99.90;;;;;;5088439;28;20400;-71
2023/12/13 07:03:20;;;;;;;152.13;39.50;;;7.70;99.90;;;;;;5091904;28;20930;-71
2023/12/13 07:05:46;;;;;;;171.65;40.53;;;7.70;99.90;;;;;;5104540;28;20842;-71
2023/12/13 07:08:12;;;;;;;225.90;44.78;;;7.70;99.90;;;;;;5091716;28;20426;-71
2023/12/13 07:10:39;;;;;;;201.07;42.35;;;7.70;99.90;;;;;;5104692;28;20491;-71
2023/12/13 07:13:04;;;;;;;187.32;42.30;;;7.70;99.90;;;;;;5090838;28;20491;-71
2023/12/13 07:15:30;;;;;;;246.77;46.65;;;7.70;99.90;;;;;;5105053;28;20845;-71
2023/12/13 07:17:55;;;;;;;201.73;43.95;;;7.70;99.90;;;;;;5102379;28;21605;-71
2023/12/13 07:20:21;;;;;;;178.00;43.23;;;7.70;99.90;;;;;;5105765;28;20492;-72
2023/12/13 07:22:49;;;;;;;196.80;43.08;;;7.70;99.90;;;;;;5100985;28;20406;-71
2023/12/13 07:25:15;;;;;;;153.40;41.30;;;7.70;99.90;;;;;;5104220;28;21004;-71
2023/12/13 07:27:40;;;;;;;162.03;40.73;;;7.70;99.90;;;;;;5102421;28;20468;-71
2023/12/13 07:30:07;;;;;;;184.68;44.28;;;7.60;99.90;;;;;;5087117;28;20475;-71
2023/12/13 07:32:33;;;;;;;145.85;39.78;;;7.70;99.90;;;;;;5102849;28;20412;-71
2023/12/13 07:34:59;;;;;;;154.17;42.10;;;7.70;99.90;;;;;;5094660;28;20406;-71
2023/12/13 07:37:25;;;;;;;286.80;49.73;;;7.70;99.90;;;;;;5098338;28;20410;-71
2023/12/13 07:39:50;;;;;;;224.97;44.47;;;7.70;99.90;;;;;;5085869;28;20584;-71
2023/12/13 07:42:16;;;;;;;238.00;47.00;;;7.70;99.90;;;;;;5097245;28;20447;-71
2023/12/13 07:44:43;;;;;;;204.03;43.90;;;7.70;99.90;;;;;;5095198;28;20397;-71
2023/12/13 07:47:09;;;;;;;258.53;48.17;;;7.70;99.90;;;;;;5102829;28;20483;-71
2023/12/13 07:49:36;;;;;;;223.98;45.60;;;7.70;99.90;;;;;;5104523;28;20504;-71
2023/12/13 07:52:04;;;;;;;214.63;44.80;;;7.70;99.90;;;;;;5100829;28;20412;-71
2023/12/13 07:54:29;;;;;;;176.15;43.67;;;7.70;99.90;;;;;;5103136;28;20898;-71
2023/12/13 07:56:55;;;;;;;171.55;42.85;;;7.70;99.90;;;;;;5101251;28;20421;-71
2023/12/13 07:59:21;;;;;;;214.17;44.70;;;7.70;99.90;;;;;;5107238;28;20445;-74
2023/12/13 08:01:46;;;;;;;248.82;48.45;;;7.70;99.90;;;;;;5104668;28;20414;-74
2023/12/13 08:04:12;;;;;;;226.88;46.72;;;7.70;99.90;;;;;;5107259;28;20403;-74
2023/12/13 08:06:38;;;;;;;171.57;42.80;;;7.70;99.90;;;;;;5102827;28;20418;-74
2023/12/13 08:09:03;;;;;;;185.68;44.45;;;7.70;99.90;;;;;;5106281;28;20409;-74
2023/12/13 08:11:29;;;;;;;193.07;42.83;;;7.70;99.90;;;;;;5103826;28;20459;-74
2023/12/13 08:13:55;;;;;;;222.57;45.93;;;7.70;99.90;;;;;;5106697;28;20447;-74
2023/12/13 08:16:22;;;;;;;268.90;49.13;;;7.70;99.90;;;;;;5103403;28;20438;-74
2023/12/13 08:18:48;;;;;;;293.48;50.85;;;7.70;99.90;;;;;;5107855;28;20558;-74
2023/12/13 08:21:13;;;;;;;314.17;52.00;;;7.70;99.90;;;;;;5101883;28;20402;-73
2023/12/13 08:23:39;;;;;;;238.60;47.43;;;7.70;99.90;;;;;;5099335;28;20489;-74
2023/12/13 08:26:05;;;;;;;254.35;49.17;;;7.70;99.90;;;;;;5093521;28;20493;-74
2023/12/13 08:28:30;;;;;;;218.10;46.40;;;7.70;99.90;;;;;;5107023;28;20424;-74
2023/12/13 08:30:56;;;;;;;205.32;45.35;;;7.70;99.90;;;;;;5102806;28;20463;-72
2023/12/13 08:33:21;;;;;;;225.33;45.80;;;7.70;99.90;;;;;;5107150;28;21208;-72
2023/12/13 08:35:47;;;;;;;198.17;46.00;;;7.80;99.90;;;;;;5101156;28;20502;-71
2023/12/13 08:38:13;;;;;;;209.35;47.42;;;7.80;99.90;;;;;;5105707;28;20400;-72
2023/12/13 08:40:39;;;;;;;180.07;44.03;;;7.80;99.90;;;;;;5089548;28;20903;-71
2023/12/13 08:43:04;;;;;;;162.80;43.28;;;7.80;99.90;;;;;;5097954;28;20409;-71
2023/12/13 08:45:30;;;;;;;320.90;52.10;;;7.80;99.90;;;;;;5103608;28;20413;-71
2023/12/13 08:47:55;;;;;;;244.53;49.47;;;7.80;99.90;;;;;;5099031;28;20898;-71
2023/12/13 08:50:21;;;;;;;159.55;42.38;;;7.80;99.90;;;;;;5104787;28;20404;-71
2023/12/13 08:52:47;;;;;;;242.00;49.03;;;7.80;99.90;;;;;;5099216;28;20791;-71
2023/12/13 08:55:12;;;;;;;226.13;47.40;;;7.80;99.90;;;;;;5102903;28;20405;-71
2023/12/13 08:57:38;;;;;;;219.07;47.75;;;7.80;99.90;;;;;;5108297;28;21007;-71
2023/12/13 09:00:07;;;;;;;261.23;50.23;;;7.80;99.90;;;;;;5103183;28;20414;-71
2023/12/13 09:02:33;;;;;;;205.13;46.45;;;7.80;99.90;;;;;;5098023;28;20401;-71
2023/12/13 09:04:58;;;;;;;195.20;45.25;;;7.80;99.90;;;;;;5104386;28;20394;-71
2023/12/13 09:07:24;;;;;;;159.07;42.40;;;7.80;99.90;;;;;;5098527;28;20418;-71
2023/12/13 09:09:49;;;;;;;159.98;41.97;;;7.80;99.90;;;;;;5090633;28;20402;-71
2023/12/13 09:12:15;;;;;;;201.43;45.20;;;7.90;99.90;;;;;;5107011;28;20429;-71
2023/12/13 09:14:42;;;;;;;167.98;43.58;;;7.90;99.90;;;;;;5103348;28;20990;-71
2023/12/13 09:17:07;;;;;;;196.43;45.42;;;7.90;99.90;;;;;;5106125;28;20479;-71
2023/12/13 09:19:33;;;;;;;208.63;46.50;;;7.90;99.90;;;;;;5102285;28;20575;-71
2023/12/13 09:21:59;;;;;;;165.32;41.13;;;7.90;99.90;;;;;;5098079;28;20400;-71
2023/12/13 09:24:26;;;;;;;188.05;44.67;;;7.90;99.90;;;;;;5103745;28;20416;-71
2023/12/13 09:26:51;;;;;;;178.10;42.57;;;7.90;99.90;;;;;;5104621;28;20424;-71
2023/12/13 09:29:17;;;;;;;181.85;44.40;;;7.90;99.90;;;;;;5101457;28;20866;-71
2023/12/13 09:31:43;;;;;;;189.68;44.85;;;7.90;99.90;;;;;;5088246;28;20404;-71
2023/12/13 09:34:08;;;;;;;213.60;47.27;;;7.90;99.90;;;;;;5101516;28;20938;-72
2023/12/13 09:36:34;;;;;;;205.60;46.90;;;8.00;99.90;;;;;;5105500;28;20784;-72
2023/12/13 09:38:59;;;;;;;204.60;46.07;;;7.90;99.90;;;;;;5099537;28;20423;-72
2023/12/13 09:41:31;;;;;;;219.95;46.72;;;8.00;99.90;;;;;;5098500;28;20526;-72
2023/12/13 09:43:57;;;;;;;193.40;46.00;;;8.00;99.90;;;;;;5104858;28;20488;-72
2023/12/13 09:46:23;;;;;;;209.27;47.97;;;8.00;99.90;;;;;;5106460;28;20500;-72
2023/12/13 09:48:50;;;;;;;205.27;48.30;;;8.00;99.90;;;;;;5105065;28;20447;-72
2023/12/13 09:51:18;;;;;;;180.38;46.40;;;8.00;99.90;;;;;;5107250;28;20450;-72
2023/12/13 09:53:47;;;;;;;184.63;48.15;;;8.00;99.90;;;;;;5104671;28;20401;-72
2023/12/13 09:56:13;;;;;;;170.65;45.38;;;8.00;99.90;;;;;;5096571;28;20402;-72
2023/12/13 09:58:39;;;;;;;159.13;42.13;;;8.00;99.90;;;;;;5103106;28;20462;-72
2023/12/13 10:01:12;;;;;;;138.17;39.17;;;8.00;99.90;;;;;;5088038;28;20400;-72
2023/12/13 10:03:42;;;;;;;179.60;42.00;;;7.80;99.90;;;;;;5104327;28;20396;-72
2023/12/13 10:06:08;;;;;;;159.60;41.03;;;7.80;99.90;;;;;;5094792;28;20410;-72
2023/12/13 10:08:35;;;;;;;154.88;39.83;;;7.80;99.90;;;;;;5101565;28;20516;-72
2023/12/13 10:11:05;;;;;;;156.88;38.97;;;7.80;99.90;;;;;;5104051;28;20389;-72
2023/12/13 10:13:31;;;;;;;155.90;38.65;;;7.80;99.90;;;;;;5097516;28;20406;-72
2023/12/13 10:16:09;;;;;;;148.18;37.13;;;7.80;99.90;;;;;;5096798;28;20906;-72
2023/12/13 10:18:34;;;;;;;156.70;39.87;;;7.80;99.90;;;;;;5105081;28;20401;-72
2023/12/13 10:21:00;;;;;;;149.53;37.77;;;7.80;99.90;;;;;;5099898;28;20410;-72
2023/12/13 10:23:26;;;;;;;122.90;36.65;;;7.80;99.90;;;;;;5098129;28;20406;-72
2023/12/13 10:25:52;;;;;;;132.65;37.30;;;7.80;99.90;;;;;;5098433;28;20402;-72
2023/12/13 10:28:20;;;;;;;147.38;36.50;;;7.80;99.90;;;;;;5104941;28;20424;-72
2023/12/13 10:30:49;;;;;;;146.57;35.95;;;7.90;99.90;;;;;;5101855;28;20409;-72
2023/12/13 10:33:15;;;;;;;158.43;37.20;;;7.90;99.90;;;;;;5085404;28;20434;-72
2023/12/13 10:35:41;;;;;;;115.05;31.67;;;7.90;99.90;;;;;;5100468;28;20470;-72
2023/12/13 10:38:12;;;;;;;100.40;26.92;;;7.90;99.90;;;;;;5084161;28;20408;-72
2023/12/13 10:40:39;;;;;;;73.90;22.17;;;8.00;99.90;;;;;;5093370;28;20394;-72
2023/12/13 10:43:08;;;;;;;75.57;21.45;;;7.90;99.90;;;;;;5105026;28;20404;-72
2023/12/13 10:45:35;;;;;;;64.90;19.88;;;7.90;99.90;;;;;;5084734;28;20418;-72
2023/12/13 10:48:04;;;;;;;64.27;19.40;;;7.90;99.90;;;;;;5096838;28;20488;-72
2023/12/13 10:50:30;;;;;;;52.33;17.75;;;7.90;99.90;;;;;;5101808;28;20894;-72
2023/12/13 10:52:58;;;;;;;47.22;16.98;;;7.90;99.90;;;;;;5105477;28;20395;-72
2023/12/13 10:55:25;;;;;;;44.55;16.35;;;7.90;99.90;;;;;;5100120;28;20494;-72
2023/12/13 10:57:51;;;;;;;50.58;16.35;;;7.80;99.90;;;;;;5097572;28;20399;-72
2023/12/13 11:00:18;;;;;;;43.65;16.30;;;7.80;99.90;;;;;;5102097;28;20412;-72
2023/12/13 11:03:11;;;;;;;42.00;15.48;;;7.90;99.90;;;;;;5104882;28;20897;-71
2023/12/13 11:05:37;;;;;;;43.08;14.73;;;7.80;99.90;;;;;;5084763;28;20419;-72
2023/12/13 11:08:14;;;;;;;38.67;14.05;;;7.90;99.90;;;;;;5101581;28;20461;-72
2023/12/13 11:10:39;;;;;;;37.35;13.52;;;7.80;99.90;;;;;;5104487;28;20412;-72
2023/12/13 11:13:06;;;;;;;38.17;13.35;;;7.90;99.90;;;;;;5100813;28;20760;-72
2023/12/13 11:15:31;;;;;;;32.00;12.02;;;7.90;99.90;;;;;;5104191;28;20762;-72
2023/12/13 11:18:00;;;;;;;31.40;12.27;;;7.90;99.90;;;;;;5100151;28;20406;-72
2023/12/13 11:20:26;;;;;;;35.63;12.40;;;7.80;99.90;;;;;;5103978;28;20397;-72
2023/12/13 11:22:55;;;;;;;32.03;11.23;;;7.80;99.90;;;;;;5100253;28;20406;-72
2023/12/13 11:25:34;;;;;;;29.88;11.20;;;7.90;99.90;;;;;;5102770;28;20416;-72
2023/12/13 11:28:00;;;;;;;29.83;10.68;;;7.80;99.90;;;;;;5095956;28;20428;-72
2023/12/13 11:30:25;;;;;;;26.65;10.18;;;7.90;99.90;;;;;;5102913;28;20400;-72
2023/12/13 11:32:51;;;;;;;24.17;9.90;;;7.90;99.90;;;;;;5099616;28;20436;-72
2023/12/13 11:35:19;;;;;;;26.55;10.10;;;7.90;99.90;;;;;;5101516;28;21223;-72
2023/12/13 11:37:50;;;;;;;25.17;9.70;;;7.80;99.90;;;;;;5100481;28;20758;-72
2023/12/13 11:40:16;;;;;;;21.73;8.95;;;7.90;99.90;;;;;;5089232;28;20430;-72
2023/12/13 11:42:42;;;;;;;22.42;9.05;;;7.80;99.90;;;;;;5105497;28;20403;-72
2023/12/13 11:45:08;;;;;;;21.83;9.20;;;7.80;99.90;;;;;;5103481;28;20831;-72
2023/12/13 11:47:33;;;;;;;19.50;8.18;;;7.80;99.90;;;;;;5104406;28;20953;-72
2023/12/13 11:49:59;;;;;;;20.33;8.83;;;7.80;99.90;;;;;;5105807;28;20401;-72
2023/12/13 11:52:25;;;;;;;18.13;8.15;;;7.80;99.90;;;;;;5105443;28;20770;-72
2023/12/13 11:54:51;;;;;;;17.55;8.13;;;7.80;99.90;;;;;;5105852;28;20472;-72
2023/12/13 11:57:19;;;;;;;17.15;7.97;;;7.80;99.90;;;;;;5092223;28;20487;-72
2023/12/13 11:59:46;;;;;;;17.45;7.93;;;7.70;99.90;;;;;;5106462;28;20493;-71
2023/12/13 12:02:16;;;;;;;17.27;7.57;;;7.70;99.90;;;;;;5080583;28;20397;-71
2023/12/13 12:04:43;;;;;;;15.63;7.10;;;7.70;99.90;;;;;;5103673;28;20407;-72
2023/12/13 12:07:14;;;;;;;15.63;7.33;;;7.70;99.90;;;;;;5104546;28;20493;-72
2023/12/13 12:09:40;;;;;;;16.77;7.30;;;7.70;99.90;;;;;;5103260;28;20406;-72
2023/12/13 12:12:08;;;;;;;13.35;6.80;;;7.70;99.90;;;;;;5105450;28;20744;-72
2023/12/13 12:14:34;;;;;;;15.05;6.80;;;7.60;99.90;;;;;;5103238;28;20431;-72
2023/12/13 12:17:01;;;;;;;13.07;6.20;;;7.60;99.90;;;;;;5104702;28;20525;-72
2023/12/13 12:19:29;;;;;;;14.32;6.55;;;7.60;99.90;;;;;;5102271;28;20757;-72
2023/12/13 12:21:55;;;;;;;13.23;5.90;;;7.60;99.90;;;;;;5105110;28;20398;-72
2023/12/13 12:24:27;;;;;;;13.52;6.40;;;7.60;99.90;;;;;;5089396;28;20941;-72
2023/12/13 12:26:54;;;;;;;15.13;6.27;;;7.50;99.90;;;;;;5094549;28;20467;-72